»·PEaware :: DAL213 KEGE-KDEN

DAL213 :: KEGE-KDEN

FLIGHT INFORMATION

Flight Status: Arrived
Operator:
Delta Air Lines
More flights by this operator :: More flights under this callsign
Pilot: Nicolas L. (9332)
Aircraft: BOEING 737-800
(B738)
More flights by this aircraft type
Origin: KEGE Eagle Co Regl
United States
Destination: KDEN Denver Intl
United States
More flights between these airports :: More routes between these airports
Route: +GYPSM5 RLG FRNCH FRNCH3
File this flight plan on PilotEdge
Remarks: Live Streaming on Twith "DAL213" and YT
Altitude:
(Current/Filed)
21,000ft
Speed:
(Current/Filed)
400kts
Departed: 02-May-18 10:12 PM
Arrived: 02-May-18 10:46 PM
Distance/Time
Traveled:
105nm/0:34
Distance/Time
To Go:
Arrived

Flight Plot

Page will automatically refresh every two minutes.

Flight plan parsing failed; only flown route is shown


Map Options




Map Legend


Flown Route
Filed Route
Departure Airport
Arrival Airport
Navaid (VOR, NDB)
Fix

Horizontal Profiles

Position Reports

Time Latitude Longitude Heading Altitude Ground
Speed
02-May-18 22:02 39.642218 -106.910846 260 6524ft 0kts
02-May-18 22:03 39.642218 -106.910848 260 6524ft 0kts
02-May-18 22:04 39.642218 -106.910850 260 6524ft 0kts
02-May-18 22:05 39.642218 -106.910853 260 6523ft 0kts
02-May-18 22:06 39.642052 -106.912288 261 6523ft 10kts
02-May-18 22:07 39.641395 -106.918258 262 6523ft 16kts
02-May-18 22:08 39.640765 -106.924036 261 6523ft 18kts
02-May-18 22:09 39.640083 -106.930306 261 6523ft 9kts
02-May-18 22:10 39.640054 -106.931235 297 6523ft 0kts
02-May-18 22:11 39.641786 -106.924734 81 6524ft 95kts
02-May-18 22:12 39.648264 -106.866507 81 8250ft 191kts
02-May-18 22:13 39.661039 -106.787183 81 10174ft 259kts
02-May-18 22:14 39.691454 -106.693107 34 11973ft 324kts
02-May-18 22:15 39.774477 -106.626359 29 14316ft 366kts
02-May-18 22:16 39.863189 -106.555289 30 17381ft 381kts
02-May-18 22:17 39.954778 -106.481280 30 20231ft 395kts
02-May-18 22:18 40.047234 -106.398511 37 21084ft 401kts
02-May-18 22:19 40.134607 -106.309215 36 21088ft 398kts
02-May-18 22:20 40.221872 -106.220262 36 21086ft 398kts
02-May-18 22:21 40.304112 -106.136363 36 21079ft 346kts
02-May-18 22:22 40.378738 -106.060052 36 21085ft 342kts
02-May-18 22:24 40.428890 -105.961082 94 21107ft 345kts
02-May-18 22:25 40.414539 -105.836127 99 21074ft 346kts
02-May-18 22:26 40.399530 -105.711640 99 21072ft 346kts
02-May-18 22:27 40.381074 -105.588137 102 21042ft 346kts
02-May-18 22:28 40.360738 -105.464519 109 21049ft 351kts
02-May-18 22:29 40.315555 -105.346487 119 20947ft 347kts
02-May-18 22:30 40.271886 -105.236444 118 19419ft 335kts
02-May-18 22:31 40.229899 -105.129224 118 17703ft 327kts
02-May-18 22:32 40.189410 -105.024371 118 15972ft 319kts
02-May-18 22:33 40.150388 -104.921633 118 14217ft 310kts
02-May-18 22:34 40.112840 -104.821758 118 12432ft 302kts
02-May-18 22:35 40.076358 -104.725223 118 11025ft 285kts
02-May-18 22:36 40.040293 -104.632008 118 10997ft 290kts
02-May-18 22:37 40.002500 -104.539272 134 10989ft 287kts
02-May-18 22:38 39.929180 -104.516123 175 10882ft 273kts
02-May-18 22:39 39.852987 -104.506940 176 10954ft 276kts
02-May-18 22:40 39.775276 -104.499357 180 10157ft 273kts
02-May-18 22:41 39.707032 -104.530028 230 8450ft 261kts
02-May-18 22:42 39.706779 -104.609273 307 7875ft 213kts
02-May-18 22:43 39.749201 -104.642385 356 6900ft 163kts
02-May-18 22:44 39.792765 -104.641666 357 6307ft 147kts
02-May-18 22:45 39.833000 -104.641640 0 5487ft 142kts
02-May-18 22:46 39.851524 -104.641906 337 5440ft 26kts
02-May-18 22:47 39.853650 -104.643330 336 5440ft 16kts
02-May-18 22:48 39.856676 -104.645421 270 5440ft 17kts
02-May-18 22:49 39.856728 -104.651498 270 5440ft 16kts
02-May-18 22:50 39.856771 -104.657755 270 5440ft 15kts
02-May-18 22:51 39.856843 -104.664666 270 5440ft 13kts
02-May-18 22:52 39.857578 -104.666266 358 5440ft 2kts
02-May-18 22:53 39.857582 -104.666266 358 5440ft 0kts
02-May-18 22:54 39.857582 -104.666266 358 5440ft 0kts
02-May-18 22:55 39.857582 -104.666266 358 5440ft 0kts
02-May-18 22:56 39.857582 -104.666266 358 5440ft 0kts
02-May-18 22:57 39.857582 -104.666266 358 5440ft 0kts
02-May-18 22:58 39.857582 -104.666266 358 5440ft 0kts
02-May-18 22:59 39.857582 -104.666266 358 5440ft 0kts
02-May-18 23:00 39.857582 -104.666266 358 5440ft 0kts

Navigation Log

Ident Type
Flight plan parsing failed, navigation log unavailable